Time;durP1;ratioP1;P1;durP2;ratioP2;P2;SDS_P1;SDS_P2;PMS_P1;PMS_P2;Temp;Humidity;BMP_temperature;BMP_pressure;BME280_temperature;BME280_humidity;BME280_pressure;Samples;Min_cycle;Max_cycle;Signal;HPM_P1;HPM_P2
2021/07/24 00:00:11;;;;;;;;;12.75;11.50;;;;;24.47;46.52;100327.38;5002283;28;45408;-70
2021/07/24 00:02:36;;;;;;;;;13.00;12.00;;;;;24.47;46.80;100321.97;5004796;28;45439;-68
2021/07/24 00:05:02;;;;;;;;;14.00;12.25;;;;;24.46;47.18;100317.66;5010274;28;45393;-66
2021/07/24 00:07:27;;;;;;;;;13.75;12.25;;;;;24.47;46.73;100313.88;4995313;28;45602;-70
2021/07/24 00:09:53;;;;;;;;;12.75;12.25;;;;;24.47;46.75;100335.47;5003572;28;45315;-67
2021/07/24 00:12:18;;;;;;;;;12.25;10.50;;;;;24.47;46.82;100321.97;5004462;28;45592;-70
2021/07/24 00:14:43;;;;;;;;;13.75;13.00;;;;;24.49;46.44;100324.44;5007967;28;45431;-67
2021/07/24 00:17:09;;;;;;;;;13.00;13.00;;;;;24.50;46.98;100337.66;5005974;28;45667;-70
2021/07/24 00:19:34;;;;;;;;;13.50;12.00;;;;;24.51;46.51;100333.09;5006179;28;45502;-71
2021/07/24 00:22:00;;;;;;;;;13.75;13.50;;;;;24.51;46.27;100344.72;5005551;28;45957;-71
2021/07/24 00:24:25;;;;;;;;;16.50;13.75;;;;;24.51;46.94;100338.50;5007340;28;45534;-70
2021/07/24 00:26:50;;;;;;;;;14.50;12.75;;;;;24.51;47.36;100319.59;5010207;28;45360;-66
2021/07/24 00:29:16;;;;;;;;;17.75;14.00;;;;;24.51;47.89;100328.53;5009804;28;45626;-71
2021/07/24 00:31:41;;;;;;;;;17.25;14.50;;;;;24.50;47.73;100326.88;5009788;28;46434;-71
2021/07/24 00:34:07;;;;;;;;;14.00;12.00;;;;;24.46;47.09;100321.16;5009513;28;45546;-67
2021/07/24 00:36:32;;;;;;;;;13.25;12.50;;;;;24.45;47.74;100329.47;5007376;28;46004;-66
2021/07/24 00:38:58;;;;;;;;;16.00;13.75;;;;;24.44;47.68;100352.16;4994733;28;45582;-70
2021/07/24 00:41:30;;;;;;;;;10.50;9.25;;;;;24.43;47.81;100372.13;5007384;28;45580;-70
2021/07/24 00:44:00;;;;;;;;;15.75;12.75;;;;;24.39;47.65;100358.31;5009036;28;45552;-71
2021/07/24 00:46:31;;;;;;;;;14.00;12.25;;;;;24.37;47.94;100354.22;5011844;28;45455;-71
2021/07/24 00:48:58;;;;;;;;;16.75;11.50;;;;;24.35;47.87;100362.56;5004539;28;45895;-71
2021/07/24 00:51:28;;;;;;;;;14.50;14.25;;;;;24.30;48.04;100353.59;5009916;28;45665;-70
2021/07/24 00:53:54;;;;;;;;;14.25;12.25;;;;;24.28;47.29;100355.72;5008220;28;45571;-71
2021/07/24 00:56:21;;;;;;;;;15.50;14.25;;;;;24.24;48.36;100350.00;5010060;28;45656;-66
2021/07/24 00:58:47;;;;;;;;;13.25;13.25;;;;;24.24;48.32;100345.41;5010967;28;45525;-67
2021/07/24 01:01:12;;;;;;;;;14.00;12.00;;;;;24.23;47.95;100341.09;5008523;28;45470;-71
2021/07/24 01:03:37;;;;;;;;;11.75;11.25;;;;;24.20;48.14;100355.06;5007602;28;45561;-71
2021/07/24 01:06:03;;;;;;;;;15.00;12.50;;;;;24.20;48.74;100357.78;5009321;28;45637;-69
2021/07/24 01:08:33;;;;;;;;;15.75;15.00;;;;;24.21;48.53;100350.50;5007720;28;45796;-71
2021/07/24 01:10:58;;;;;;;;;13.75;13.75;;;;;24.19;49.19;100329.16;5005244;28;46501;-71
2021/07/24 01:13:23;;;;;;;;;18.00;14.00;;;;;24.19;49.25;100325.66;5012438;28;45462;-70
2021/07/24 01:15:51;;;;;;;;;15.00;12.75;;;;;24.17;48.77;100333.16;5006644;28;45567;-70
2021/07/24 01:18:18;;;;;;;;;14.25;13.50;;;;;24.15;49.71;100308.31;5007226;28;45549;-71
2021/07/24 01:20:45;;;;;;;;;14.00;12.50;;;;;24.13;49.38;100327.44;5007723;28;45503;-69
2021/07/24 01:23:12;;;;;;;;;13.75;12.00;;;;;24.13;49.45;100330.13;5008017;28;45535;-70
2021/07/24 01:25:48;;;;;;;;;17.50;15.75;;;;;24.12;49.88;100331.22;5010070;28;45553;-70
2021/07/24 01:28:24;;;;;;;;;13.25;12.50;;;;;24.08;49.47;100346.25;5009354;28;45509;-69
2021/07/24 01:30:49;;;;;;;;;14.50;14.50;;;;;24.04;50.01;100340.56;4989291;28;45461;-71
2021/07/24 01:33:15;;;;;;;;;13.25;12.25;;;;;24.06;50.15;100337.63;5004284;28;45526;-71
2021/07/24 01:35:48;;;;;;;;;15.50;11.75;;;;;24.05;50.61;100341.38;5007716;28;45467;-70
2021/07/24 01:38:14;;;;;;;;;17.00;15.00;;;;;24.04;50.53;100351.34;5009641;28;45622;-69
2021/07/24 01:40:40;;;;;;;;;18.25;13.75;;;;;24.01;51.09;100343.75;5008358;28;45756;-71
2021/07/24 01:43:05;;;;;;;;;14.00;14.00;;;;;24.00;50.59;100341.28;5008078;28;45529;-70
2021/07/24 01:45:35;;;;;;;;;17.00;13.50;;;;;23.98;51.33;100340.72;5006848;28;46003;-69
2021/07/24 01:48:02;;;;;;;;;18.75;16.50;;;;;23.96;51.37;100346.38;5009824;28;45575;-70
2021/07/24 01:53:12;;;;;;;;;13.25;12.50;;;;;23.94;52.70;100351.19;5006086;28;45514;-70
2021/07/24 01:55:44;;;;;;;;;17.25;13.50;;;;;23.93;53.11;100338.75;5011135;28;45511;-70
2021/07/24 01:58:13;;;;;;;;;15.00;14.00;;;;;23.93;53.50;100343.34;5016968;28;45552;-71
2021/07/24 02:00:43;;;;;;;;;15.25;14.50;;;;;23.94;53.74;100345.00;4988550;28;47607;-69
2021/07/24 02:03:12;;;;;;;;;14.50;12.00;;;;;23.93;54.13;100337.94;5003965;28;45605;-71
2021/07/24 02:05:46;;;;;;;;;13.75;11.50;;;;;23.95;54.57;100347.44;5006296;28;45575;-71
2021/07/24 02:08:18;;;;;;;;;16.25;14.25;;;;;23.95;54.84;100362.81;5005754;28;45408;-70
2021/07/24 02:10:43;;;;;;;;;14.00;11.50;;;;;23.93;55.42;100354.13;5008904;28;46087;-70
2021/07/24 02:13:10;;;;;;;;;12.50;11.00;;;;;23.91;55.24;100358.97;5008111;28;45479;-71
2021/07/24 02:15:37;;;;;;;;;11.00;9.00;;;;;23.87;55.50;100382.94;4990713;28;45794;-67
2021/07/24 02:18:03;;;;;;;;;13.25;9.75;;;;;23.84;55.57;100386.13;4991715;28;45503;-69
2021/07/24 02:20:29;;;;;;;;;9.00;8.50;;;;;23.85;55.54;100389.63;5007332;28;45600;-69
2021/07/24 02:22:56;;;;;;;;;7.75;7.00;;;;;23.87;55.15;100399.13;4992435;28;45906;-70
2021/07/24 02:25:21;;;;;;;;;6.25;6.25;;;;;23.89;54.97;100396.19;4992215;28;45637;-69
2021/07/24 02:27:48;;;;;;;;;6.75;6.25;;;;;23.87;54.74;100401.00;5005924;28;45478;-69
2021/07/24 02:30:15;;;;;;;;;7.00;7.00;;;;;23.88;54.56;100397.22;5005552;28;45529;-72
2021/07/24 02:32:41;;;;;;;;;6.75;6.50;;;;;23.90;54.52;100403.22;4999533;28;45554;-69
2021/07/24 02:35:08;;;;;;;;;10.25;6.00;;;;;23.90;54.33;100400.50;4996296;28;45495;-69
2021/07/24 02:37:33;;;;;;;;;6.50;5.75;;;;;23.89;54.64;100407.78;5011953;28;45551;-67
2021/07/24 02:39:59;;;;;;;;;8.00;5.75;;;;;23.89;54.45;100413.19;4994002;28;48063;-71
2021/07/24 02:42:25;;;;;;;;;5.75;4.50;;;;;23.89;54.16;100407.78;5008309;28;45515;-71
2021/07/24 02:44:50;;;;;;;;;6.00;6.00;;;;;23.90;54.22;100403.22;5007705;28;45523;-72
2021/07/24 02:47:16;;;;;;;;;5.00;5.00;;;;;23.88;54.22;100383.75;5007098;28;45515;-69
2021/07/24 02:49:41;;;;;;;;;8.25;5.25;;;;;23.88;54.24;100378.34;5009889;28;45436;-66
2021/07/24 02:52:07;;;;;;;;;5.25;3.75;;;;;23.86;53.93;100383.16;5008740;28;45528;-69
2021/07/24 02:54:33;;;;;;;;;4.00;4.00;;;;;23.78;53.96;100390.59;5005727;28;45554;-71
2021/07/24 02:56:58;;;;;;;;;7.75;6.25;;;;;23.72;53.95;100385.34;5004257;28;45894;-67
2021/07/24 02:59:23;;;;;;;;;4.00;4.00;;;;;23.64;54.08;100388.44;5004761;28;45775;-71
2021/07/24 03:01:49;;;;;;;;;5.00;5.00;;;;;23.57;54.31;100391.31;4990896;28;45730;-71
2021/07/24 03:04:14;;;;;;;;;6.25;5.50;;;;;23.53;54.24;100406.34;5008592;28;46202;-70
2021/07/24 03:06:40;;;;;;;;;5.50;5.25;;;;;23.50;54.20;100414.91;5006036;28;45514;-69
2021/07/24 03:09:07;;;;;;;;;6.00;4.00;;;;;23.47;54.74;100428.88;5008106;28;46151;-67
2021/07/24 03:11:33;;;;;;;;;4.50;4.50;;;;;23.46;54.77;100427.25;5002383;28;45579;-70
2021/07/24 03:14:00;;;;;;;;;5.50;3.50;;;;;23.42;54.66;100426.91;5008549;28;45828;-70
2021/07/24 03:16:25;;;;;;;;;6.00;5.00;;;;;23.39;54.88;100419.28;5010434;28;45424;-68
2021/07/24 03:18:51;;;;;;;;;5.50;5.00;;;;;23.35;55.27;100418.97;5006271;28;45556;-71
2021/07/24 03:21:17;;;;;;;;;4.25;4.00;;;;;23.32;55.53;100413.25;5003507;28;45637;-70
2021/07/24 03:23:43;;;;;;;;;6.25;6.25;;;;;23.27;55.07;100405.88;5006410;28;45554;-70
2021/07/24 03:26:11;;;;;;;;;3.25;3.25;;;;;23.21;56.05;100428.41;5004817;28;45818;-71
2021/07/24 03:28:37;;;;;;;;;5.00;4.50;;;;;23.14;54.81;100438.50;5010726;28;46021;-69
2021/07/24 03:31:02;;;;;;;;;4.50;4.25;;;;;23.10;55.73;100451.66;5004889;28;45440;-70
2021/07/24 03:33:28;;;;;;;;;5.00;5.00;;;;;23.06;55.34;100458.56;5008188;28;45495;-69
2021/07/24 03:35:53;;;;;;;;;4.00;4.00;;;;;23.03;55.75;100459.03;5005204;28;45881;-66
2021/07/24 03:38:20;;;;;;;;;7.00;4.00;;;;;22.99;55.68;100451.66;5007292;28;45489;-70
2021/07/24 03:40:46;;;;;;;;;7.25;5.50;;;;;22.93;55.56;100459.63;5008118;28;45486;-70
2021/07/24 03:43:13;;;;;;;;;6.75;5.50;;;;;22.88;55.41;100461.41;5006919;28;45552;-67
2021/07/24 03:45:39;;;;;;;;;5.75;5.00;;;;;22.84;56.00;100477.19;5005459;28;45569;-66
2021/07/24 03:48:04;;;;;;;;;6.50;4.25;;;;;22.79;55.67;100492.44;5006255;28;45536;-70
2021/07/24 03:50:30;;;;;;;;;5.00;5.00;;;;;22.73;55.87;100507.69;5006134;28;45467;-70
2021/07/24 03:52:55;;;;;;;;;4.50;3.50;;;;;22.66;56.20;100515.88;5006384;28;45549;-70
2021/07/24 03:55:21;;;;;;;;;5.75;4.00;;;;;22.61;56.11;100507.69;5006106;28;45625;-70
2021/07/24 03:57:49;;;;;;;;;5.00;5.00;;;;;22.57;56.47;100508.38;5003056;28;45930;-70
2021/07/24 04:00:14;;;;;;;;;6.00;6.00;;;;;22.50;56.45;100528.16;5002294;28;45558;-70
2021/07/24 04:02:42;;;;;;;;;5.00;4.00;;;;;22.45;56.31;100529.91;4989984;28;45407;-72
2021/07/24 04:05:08;;;;;;;;;6.00;5.50;;;;;22.40;56.78;100524.41;5005308;28;45510;-70
2021/07/24 04:07:34;;;;;;;;;5.25;5.00;;;;;22.33;56.99;100536.09;5014166;28;46213;-70
2021/07/24 04:10:00;;;;;;;;;5.00;5.00;;;;;22.25;56.75;100539.13;5005172;28;45475;-71
2021/07/24 04:12:26;;;;;;;;;5.00;5.00;;;;;22.21;56.95;100550.59;5008774;28;45449;-69
2021/07/24 04:14:51;;;;;;;;;5.00;5.00;;;;;22.16;57.21;100539.69;5006435;28;45815;-70
2021/07/24 04:17:17;;;;;;;;;4.00;4.00;;;;;22.12;57.20;100529.34;5002889;28;45403;-70
2021/07/24 04:19:42;;;;;;;;;5.00;5.00;;;;;22.10;57.43;100538.69;5008066;28;45434;-70
2021/07/24 04:22:07;;;;;;;;;6.00;6.00;;;;;22.06;58.04;100551.00;5008352;28;45847;-67
2021/07/24 04:24:33;;;;;;;;;6.25;4.50;;;;;21.98;58.16;100537.84;5005336;28;45488;-71
2021/07/24 04:26:58;;;;;;;;;8.00;5.75;;;;;21.87;58.27;100529.50;5007616;28;46427;-69
2021/07/24 04:29:23;;;;;;;;;5.00;5.00;;;;;21.84;58.27;100539.94;5003437;28;45459;-71
2021/07/24 04:31:50;;;;;;;;;4.25;4.00;;;;;21.82;58.13;100542.00;5003532;28;45757;-67
2021/07/24 04:34:16;;;;;;;;;5.50;3.50;;;;;21.80;58.56;100541.41;5003110;28;45385;-67
2021/07/24 04:36:42;;;;;;;;;6.25;5.50;;;;;21.78;58.07;100538.13;5000239;28;46123;-70
2021/07/24 04:39:07;;;;;;;;;5.75;5.50;;;;;21.74;58.12;100547.72;5006462;28;45484;-71
2021/07/24 04:41:33;;;;;;;;;5.75;5.75;;;;;21.73;58.32;100544.19;5006389;28;45501;-70
2021/07/24 04:43:58;;;;;;;;;5.00;5.00;;;;;21.73;58.09;100546.06;5004034;28;45522;-71
2021/07/24 04:46:23;;;;;;;;;9.00;6.00;;;;;21.70;58.33;100547.34;5009015;28;45758;-70
2021/07/24 04:48:49;;;;;;;;;7.00;5.50;;;;;21.68;58.30;100547.56;5004712;28;45558;-70
2021/07/24 04:51:15;;;;;;;;;6.00;5.25;;;;;21.69;58.84;100554.59;5000825;28;45647;-67
2021/07/24 04:53:43;;;;;;;;;6.50;5.75;;;;;21.67;59.17;100559.38;4995248;28;45631;-70
2021/07/24 04:56:08;;;;;;;;;7.50;5.75;;;;;21.67;60.98;100556.69;4984915;28;47535;-69
2021/07/24 04:58:35;;;;;;;;;4.75;4.00;;;;;21.61;59.71;100564.81;5008372;28;45521;-68
2021/07/24 05:01:01;;;;;;;;;6.25;6.25;;;;;21.55;59.73;100566.56;4999646;28;45546;-70
2021/07/24 05:03:27;;;;;;;;;7.25;5.75;;;;;21.55;59.84;100580.00;5004671;28;45460;-69
2021/07/24 05:05:53;;;;;;;;;6.00;6.00;;;;;21.55;60.56;100582.69;4993343;28;47807;-67
2021/07/24 05:08:20;;;;;;;;;6.00;6.00;;;;;21.50;60.09;100596.00;5005319;28;45706;-68
2021/07/24 05:10:46;;;;;;;;;8.00;7.00;;;;;21.45;61.51;100588.59;5010820;28;45535;-70
2021/07/24 05:13:11;;;;;;;;;6.00;5.75;;;;;21.41;60.83;100592.78;5011304;28;45633;-69
2021/07/24 05:15:40;;;;;;;;;6.25;6.25;;;;;21.42;60.76;100599.81;5013406;28;45448;-68
2021/07/24 05:18:06;;;;;;;;;5.00;5.00;;;;;21.46;61.38;100601.00;5012652;28;45444;-70
2021/07/24 05:20:33;;;;;;;;;8.00;8.00;;;;;21.44;61.75;100594.22;5008986;28;45514;-70
2021/07/24 05:22:58;;;;;;;;;9.25;5.75;;;;;21.44;60.82;100604.97;5015486;28;45463;-69
2021/07/24 05:25:24;;;;;;;;;8.50;6.75;;;;;21.45;60.88;100596.66;5013429;28;45453;-69
2021/07/24 05:27:50;;;;;;;;;8.50;6.25;;;;;21.50;60.70;100598.69;5007505;28;45516;-69
2021/07/24 05:30:15;;;;;;;;;9.00;6.50;;;;;21.55;60.93;100598.81;4990422;28;45611;-69
2021/07/24 05:32:41;;;;;;;;;8.00;6.00;;;;;21.58;60.53;100602.94;5024913;28;45450;-67
2021/07/24 05:35:07;;;;;;;;;5.00;5.00;;;;;21.57;60.68;100601.31;5012409;28;46272;-70
2021/07/24 05:37:32;;;;;;;;;8.75;7.25;;;;;21.51;63.03;100603.00;4992823;28;45665;-67
2021/07/24 05:39:58;;;;;;;;;6.75;6.75;;;;;21.50;60.92;100587.09;5012716;28;45365;-70
2021/07/24 05:42:23;;;;;;;;;9.75;6.50;;;;;21.58;61.04;100589.47;5010050;28;45435;-66
2021/07/24 05:44:49;;;;;;;;;5.75;5.75;;;;;21.68;61.43;100587.06;5007062;28;46070;-70
2021/07/24 05:47:14;;;;;;;;;8.00;5.75;;;;;21.82;60.79;100593.13;5012984;28;45687;-68
2021/07/24 05:49:40;;;;;;;;;8.00;6.00;;;;;21.89;60.37;100589.28;5013905;28;45448;-67
2021/07/24 05:52:11;;;;;;;;;7.50;6.50;;;;;21.91;59.80;100581.00;5009976;28;45564;-69
2021/07/24 05:54:37;;;;;;;;;6.00;5.00;;;;;21.84;60.48;100586.47;5004257;28;45498;-67
2021/07/24 05:57:06;;;;;;;;;10.00;7.00;;;;;21.80;60.94;100590.66;5005612;28;45835;-69
2021/07/24 05:59:34;;;;;;;;;8.25;6.00;;;;;21.86;60.07;100580.88;5015857;28;45544;-68
2021/07/24 06:02:01;;;;;;;;;6.75;4.75;;;;;21.98;60.00;100579.03;5010909;28;45411;-69
2021/07/24 06:04:26;;;;;;;;;6.75;4.50;;;;;22.09;60.35;100591.72;5007911;28;45585;-71
2021/07/24 06:06:52;;;;;;;;;5.00;5.00;;;;;22.11;59.88;100586.91;5010911;28;45443;-71
2021/07/24 06:09:17;;;;;;;;;6.50;5.00;;;;;22.15;59.25;100581.88;5012687;28;45705;-74
2021/07/24 06:11:43;;;;;;;;;5.75;5.75;;;;;22.28;58.94;100570.16;5005499;28;45608;-71
2021/07/24 06:14:08;;;;;;;;;5.25;5.00;;;;;22.38;58.78;100566.88;5009702;28;46235;-71
2021/07/24 06:16:36;;;;;;;;;5.00;5.00;;;;;22.43;58.41;100561.66;5007869;28;45419;-71
2021/07/24 06:19:01;;;;;;;;;8.50;7.00;;;;;22.48;59.16;100570.66;5005369;28;45442;-71
2021/07/24 06:21:27;;;;;;;;;6.00;5.25;;;;;22.57;59.03;100571.13;5007098;28;45420;-72
2021/07/24 06:23:52;;;;;;;;;6.00;6.00;;;;;22.56;58.22;100574.06;5010731;28;45794;-72
2021/07/24 06:26:18;;;;;;;;;8.50;7.50;;;;;22.58;58.49;100580.84;5008056;28;45556;-69
2021/07/24 06:28:43;;;;;;;;;5.50;5.50;;;;;22.65;57.64;100572.66;5005600;28;45564;-72
2021/07/24 06:31:08;;;;;;;;;8.50;6.00;;;;;22.71;58.40;100579.81;5009846;28;45637;-71
2021/07/24 06:33:34;;;;;;;;;6.25;6.25;;;;;22.78;57.87;100577.84;5005425;28;45478;-70
2021/07/24 06:36:00;;;;;;;;;6.00;5.75;;;;;22.80;57.48;100589.19;5007261;28;45487;-73
2021/07/24 06:38:26;;;;;;;;;6.00;6.00;;;;;22.81;57.26;100576.53;5002646;28;45498;-72
2021/07/24 06:40:52;;;;;;;;;5.00;5.00;;;;;22.91;57.63;100572.19;5004967;28;45631;-68
2021/07/24 06:43:17;;;;;;;;;7.00;5.50;;;;;23.06;56.94;100566.38;5003320;28;45558;-71
2021/07/24 06:45:43;;;;;;;;;5.25;5.25;;;;;23.20;57.04;100568.81;4982062;28;45634;-71
2021/07/24 06:48:08;;;;;;;;;7.00;5.00;;;;;23.33;56.83;100572.06;5001275;28;45469;-69
2021/07/24 06:50:33;;;;;;;;;5.50;4.75;;;;;23.47;56.13;100578.03;5007395;28;45468;-70
2021/07/24 06:52:59;;;;;;;;;5.00;5.00;;;;;23.60;54.65;100576.94;5008250;28;45545;-71
2021/07/24 06:55:26;;;;;;;;;6.25;5.25;;;;;23.62;55.74;100580.22;5009519;28;45593;-70
2021/07/24 06:57:51;;;;;;;;;6.00;4.25;;;;;23.71;55.53;100583.34;5012566;28;45514;-72
2021/07/24 07:00:17;;;;;;;;;6.25;4.25;;;;;23.78;54.81;100570.56;5007287;28;45588;-73
2021/07/24 07:02:42;;;;;;;;;7.25;5.00;;;;;23.88;54.76;100578.03;5015633;28;46235;-70
2021/07/24 07:05:09;;;;;;;;;6.25;5.25;;;;;23.98;54.57;100578.22;4993704;28;45643;-71
2021/07/24 07:07:34;;;;;;;;;6.75;6.25;;;;;24.12;54.24;100574.16;5010954;28;45535;-73
2021/07/24 07:09:59;;;;;;;;;5.50;5.00;;;;;24.25;53.94;100573.84;5005373;28;45674;-69
2021/07/24 07:12:25;;;;;;;;;7.00;5.00;;;;;24.32;53.31;100571.00;5001258;28;45568;-68
2021/07/24 07:14:50;;;;;;;;;9.75;5.25;;;;;24.33;53.02;100579.91;5010422;28;45529;-68
2021/07/24 07:17:15;;;;;;;;;5.00;4.50;;;;;24.45;53.65;100583.34;5012504;28;45449;-70
2021/07/24 07:19:41;;;;;;;;;5.00;5.00;;;;;24.58;52.61;100572.28;5013021;28;45465;-70
2021/07/24 07:22:07;;;;;;;;;8.50;5.00;;;;;24.61;52.95;100579.88;5009764;28;45440;-73
2021/07/24 07:24:33;;;;;;;;;4.25;4.25;;;;;24.64;53.04;100576.69;5014291;28;45406;-70
2021/07/24 07:26:58;;;;;;;;;4.75;4.00;;;;;24.68;51.96;100575.13;5011973;28;45324;-71
2021/07/24 07:29:24;;;;;;;;;5.00;5.00;;;;;24.71;52.43;100586.50;5005069;28;45524;-72
2021/07/24 07:31:50;;;;;;;;;7.25;4.00;;;;;24.77;52.89;100570.13;5003520;28;46015;-70
2021/07/24 07:34:15;;;;;;;;;5.00;5.00;;;;;24.94;52.36;100580.09;4994895;28;45635;-70
2021/07/24 07:36:41;;;;;;;;;8.00;4.75;;;;;25.13;52.29;100584.16;5012099;28;45317;-70
2021/07/24 07:39:06;;;;;;;;;6.00;4.25;;;;;25.35;51.36;100584.22;5008553;28;45649;-70
2021/07/24 07:41:31;;;;;;;;;6.00;5.00;;;;;25.57;50.94;100591.50;4994823;28;48457;-71
2021/07/24 07:43:57;;;;;;;;;6.25;4.50;;;;;25.81;49.60;100590.16;5000045;28;45656;-71
2021/07/24 07:46:23;;;;;;;;;4.25;3.75;;;;;25.97;49.31;100591.19;5004317;28;45603;-71
2021/07/24 07:48:48;;;;;;;;;5.75;4.25;;;;;26.44;49.41;100581.59;5010085;28;45470;-73
2021/07/24 07:51:14;;;;;;;;;4.00;4.00;;;;;28.05;46.74;100584.63;5011976;28;46528;-68
2021/07/24 07:53:39;;;;;;;;;5.00;4.00;;;;;30.31;43.21;100586.75;5010946;28;45490;-71
2021/07/24 07:56:09;;;;;;;;;5.00;4.00;;;;;32.66;40.12;100583.00;4992115;28;45458;-71
2021/07/24 07:58:36;;;;;;;;;4.25;4.00;;;;;34.52;37.32;100581.50;5008377;28;45577;-71
2021/07/24 08:01:08;;;;;;;;;4.75;4.75;;;;;36.77;34.12;100588.50;5006239;28;45680;-71
2021/07/24 08:03:34;;;;;;;;;4.25;4.00;;;;;38.70;31.55;100584.84;4999860;28;45784;-70
2021/07/24 08:05:59;;;;;;;;;4.50;4.50;;;;;40.16;30.27;100592.47;5003315;28;45331;-70
2021/07/24 08:08:24;;;;;;;;;4.00;4.00;;;;;41.59;28.32;100589.72;5009262;28;45550;-69
2021/07/24 08:10:50;;;;;;;;;3.00;3.00;;;;;42.82;27.18;100593.69;5011424;28;46165;-73
2021/07/24 08:13:17;;;;;;;;;2.00;1.75;;;;;43.68;25.66;100595.78;5005881;28;45544;-72
2021/07/24 08:15:44;;;;;;;;;2.25;1.50;;;;;44.54;24.42;100588.38;5005071;28;45587;-72
2021/07/24 08:18:10;;;;;;;;;4.50;3.75;;;;;45.26;23.70;100594.53;5006117;28;45751;-69
2021/07/24 08:20:39;;;;;;;;;2.00;1.25;;;;;45.57;22.16;100583.94;5002920;28;45579;-71
2021/07/24 08:23:05;;;;;;;;;1.25;1.25;;;;;45.79;21.68;100591.19;5003768;28;45495;-72
2021/07/24 08:25:31;;;;;;;;;3.50;2.75;;;;;46.05;21.52;100589.31;5007845;28;45549;-73
2021/07/24 08:28:03;;;;;;;;;3.00;3.00;;;;;46.43;21.42;100585.00;5004063;28;45543;-71
2021/07/24 08:30:29;;;;;;;;;2.75;1.00;;;;;46.88;20.41;100587.41;5005603;28;47864;-70
2021/07/24 08:32:55;;;;;;;;;2.50;2.50;;;;;47.64;17.26;100586.03;5010548;28;45481;-73
2021/07/24 08:35:20;;;;;;;;;3.00;1.50;;;;;48.13;19.39;100581.38;5008418;28;45478;-70
2021/07/24 08:37:45;;;;;;;;;2.50;2.00;;;;;48.70;18.93;100585.75;5005996;28;45784;-71
2021/07/24 08:40:15;;;;;;;;;2.00;2.00;;;;;49.05;17.79;100583.84;5006116;28;45545;-71
2021/07/24 08:42:41;;;;;;;;;2.50;2.50;;;;;49.33;18.06;100582.72;5010529;28;45556;-71
2021/07/24 08:45:07;;;;;;;;;2.75;1.50;;;;;49.76;17.34;100570.97;5011090;28;45472;-71
2021/07/24 08:47:33;;;;;;;;;2.50;2.50;;;;;49.85;17.33;100568.41;5009795;28;45628;-70
2021/07/24 08:49:59;;;;;;;;;4.50;3.00;;;;;49.91;17.05;100577.97;5009774;28;45609;-71
2021/07/24 08:52:30;;;;;;;;;3.00;1.25;;;;;49.88;16.29;100566.78;5014687;28;45436;-71
2021/07/24 08:54:57;;;;;;;;;4.75;2.25;;;;;49.61;16.88;100573.16;5008777;28;45585;-70
2021/07/24 08:57:26;;;;;;;;;3.00;2.00;;;;;49.63;16.30;100579.16;5014735;28;45426;-69
2021/07/24 08:59:57;;;;;;;;;3.00;3.00;;;;;49.70;17.13;100573.44;5005160;28;47395;-74
2021/07/24 09:02:28;;;;;;;;;1.50;1.25;;;;;49.58;16.88;100576.00;4997939;28;45450;-70
2021/07/24 09:05:03;;;;;;;;;0.50;0.50;;;;;49.97;16.52;100580.31;5011961;28;45536;-69
2021/07/24 09:07:31;;;;;;;;;3.00;2.00;;;;;50.31;16.53;100578.19;5016021;28;45522;-71
2021/07/24 09:10:00;;;;;;;;;2.00;1.50;;;;;50.54;15.84;100577.41;5007577;28;45578;-71
2021/07/24 09:12:27;;;;;;;;;1.00;1.00;;;;;50.46;15.38;100578.75;5012886;28;45572;-73
2021/07/24 09:14:53;;;;;;;;;2.25;1.75;;;;;50.56;15.15;100583.41;5006321;28;45421;-71
2021/07/24 09:17:20;;;;;;;;;5.00;2.00;;;;;50.75;14.35;100584.69;5010745;28;45535;-70
2021/07/24 09:19:45;;;;;;;;;2.50;2.00;;;;;50.42;15.30;100580.81;5013126;28;45460;-72
2021/07/24 09:22:33;;;;;;;;;2.50;0.75;;;;;50.47;15.17;100580.34;5006660;28;45449;-71
2021/07/24 09:25:11;;;;;;;;;2.00;2.00;;;;;50.48;15.38;100581.94;5006552;28;45605;-70
2021/07/24 09:27:41;;;;;;;;;3.00;2.00;;;;;50.30;15.25;100582.22;5002887;28;45645;-74
2021/07/24 09:30:10;;;;;;;;;2.50;2.50;;;;;50.07;15.09;100573.75;5010354;28;46015;-71
2021/07/24 09:32:36;;;;;;;;;2.50;2.50;;;;;48.95;15.46;100576.34;5010395;28;45609;-70
2021/07/24 09:35:02;;;;;;;;;1.00;1.00;;;;;47.28;16.30;100574.13;5011549;28;45430;-71
2021/07/24 09:37:29;;;;;;;;;4.25;2.00;;;;;45.55;17.78;100561.19;5013922;28;45546;-73
2021/07/24 09:39:56;;;;;;;;;2.75;1.75;;;;;44.54;18.73;100563.31;5008786;28;45691;-73
2021/07/24 09:42:22;;;;;;;;;2.50;2.50;;;;;43.04;19.32;100567.03;5001662;28;45540;-73
2021/07/24 09:45:04;;;;;;;;;2.00;2.00;;;;;41.48;21.08;100567.28;5010584;28;45699;-70
2021/07/24 09:47:29;;;;;;;;;3.00;1.50;;;;;40.63;21.86;100562.13;5007028;28;45427;-71
2021/07/24 09:50:11;;;;;;;;;2.50;2.00;;;;;40.29;22.67;100574.69;5010779;28;45588;-71
2021/07/24 09:52:51;;;;;;;;;3.75;1.50;;;;;40.13;22.30;100571.03;5012022;28;45829;-68
2021/07/24 09:55:24;;;;;;;;;1.50;1.50;;;;;40.11;21.56;100573.34;5011189;28;45652;-69
2021/07/24 09:57:52;;;;;;;;;2.00;1.75;;;;;40.08;22.75;100576.84;5007248;28;45450;-70
2021/07/24 10:00:26;;;;;;;;;1.75;1.75;;;;;40.13;23.55;100571.03;4998562;28;47187;-72
2021/07/24 10:02:59;;;;;;;;;3.25;2.00;;;;;40.02;22.76;100572.72;5005947;28;45430;-69
2021/07/24 10:05:33;;;;;;;;;3.00;3.00;;;;;39.51;23.64;100567.69;5014425;28;45573;-69
2021/07/24 10:08:04;;;;;;;;;2.50;2.00;;;;;39.25;23.78;100570.81;5007651;28;45583;-71
2021/07/24 10:10:35;;;;;;;;;2.00;2.00;;;;;39.31;24.31;100575.75;5010279;28;45621;-73
2021/07/24 10:13:06;;;;;;;;;4.00;1.75;;;;;39.51;23.80;100574.00;5011005;28;45483;-69
2021/07/24 10:15:37;;;;;;;;;2.25;2.25;;;;;39.59;23.97;100577.78;5010629;28;45576;-70
2021/07/24 10:18:06;;;;;;;;;5.00;2.50;;;;;39.68;23.77;100578.47;5003687;28;45447;-72
2021/07/24 10:20:34;;;;;;;;;3.50;2.75;;;;;39.32;23.74;100577.38;5007468;28;45641;-72
2021/07/24 10:22:59;;;;;;;;;2.00;2.00;;;;;39.04;22.66;100577.28;5009259;28;45626;-72
2021/07/24 10:25:25;;;;;;;;;2.25;2.25;;;;;38.42;24.21;100578.31;5014957;28;45455;-71
2021/07/24 10:27:52;;;;;;;;;3.25;2.00;;;;;37.82;24.92;100584.03;5006276;28;45452;-70
2021/07/24 10:30:27;;;;;;;;;4.00;2.00;;;;;37.55;24.94;100571.59;5011584;28;45991;-72
2021/07/24 10:32:54;;;;;;;;;2.25;2.25;;;;;37.57;25.01;100582.31;5007986;28;46082;-72
2021/07/24 10:35:39;;;;;;;;;3.00;2.75;;;;;36.76;23.83;100567.63;5007152;28;45585;-69
2021/07/24 10:38:30;;;;;;;;;2.00;2.00;;;;;36.42;26.34;100561.06;5011334;28;45483;-72
2021/07/24 10:41:38;;;;;;;;;6.75;5.00;;;;;36.86;26.57;100556.25;5006115;28;46084;-70
2021/07/24 10:44:10;;;;;;;;;2.25;2.25;;;;;37.32;25.43;100562.03;5005333;28;45977;-72
2021/07/24 10:46:43;;;;;;;;;2.00;2.00;;;;;37.61;26.19;100558.44;5010973;28;46065;-71
2021/07/24 10:49:29;;;;;;;;;5.00;2.00;;;;;37.51;25.50;100570.63;5001579;28;45752;-69
2021/07/24 10:52:02;;;;;;;;;2.75;2.75;;;;;37.44;26.04;100564.88;5002414;28;47955;-69
2021/07/24 10:54:28;;;;;;;;;4.00;2.00;;;;;37.48;25.56;100552.00;5007017;28;45580;-73
2021/07/24 10:56:54;;;;;;;;;2.00;2.00;;;;;37.19;24.70;100550.94;5000417;28;45477;-72
2021/07/24 10:59:21;;;;;;;;;5.00;2.50;;;;;36.69;25.88;100548.06;5006989;28;45530;-68
2021/07/24 11:01:51;;;;;;;;;3.50;1.25;;;;;36.92;26.77;100541.16;5009294;28;45820;-72
2021/07/24 11:04:35;;;;;;;;;1.25;1.25;;;;;37.36;26.04;100549.97;5010584;28;45433;-73
2021/07/24 11:07:12;;;;;;;;;1.00;0.50;;;;;37.53;25.36;100548.28;5004846;28;46320;-71
2021/07/24 11:09:39;;;;;;;;;2.00;2.00;;;;;37.25;25.77;100543.25;4999597;28;45795;-72
2021/07/24 11:12:15;;;;;;;;;2.00;2.00;;;;;36.62;25.63;100545.00;5002879;28;46078;-68
2021/07/24 11:14:43;;;;;;;;;4.50;3.75;;;;;36.03;26.63;100553.81;4995220;28;45710;-69
2021/07/24 11:17:11;;;;;;;;;2.75;2.75;;;;;35.49;27.09;100557.69;5003753;28;45474;-67
2021/07/24 11:19:49;;;;;;;;;2.00;2.00;;;;;35.01;27.65;100553.00;5003775;28;45388;-69
2021/07/24 11:22:25;;;;;;;;;1.00;1.00;;;;;34.56;27.26;100558.63;5011133;28;45542;-67
2021/07/24 11:24:50;;;;;;;;;1.00;1.00;;;;;34.05;28.08;100560.72;5006376;28;45633;-69